Latest Coastal Weather Observations for Cerberus

IDV60701

Issued at 2:41 pm EST Monday 3 August 2015 (issued every 10 minutes, with the page automatically refreshed every 10 minutes)

About coastal observations | Map of coastal stations | Coastal observations for VIC | Marine services | Other Formats
Station Details ID: 086361 Name: CERBERUS Lat: -38.36 Lon: 145.18 Height: 12.69 m
Data from the previous 72 hours. | See also: Recent months at Cerberus
Date/Time
EST
Temp

°C
Wind Pressure Rain
since 9am
mm
Weather Cloud Vis
km
Sea
Height
m
Swell
Dir
 
Speed
knots
Gust
knots
hPa Trend Height
m
Period
s
Dir
03/02:30pm 8.6 W 10 16 1019.1 - 0.0 - - - - - - -
03/02:00pm 8.3 WSW 16 25 1019.0 - 0.0 - - - - - - -
03/01:37pm 8.9 WSW 15 26 1018.8 - 0.0 - - - - - - -
03/01:30pm 8.9 SW 17 26 1018.7 - 0.0 - - - - - - -
03/01:00pm 8.8 W 10 18 1018.5 - 0.0 - - - - - - -
03/12:30pm 9.1 W 13 21 1018.3 - 0.0 - - - - - - -
03/12:00pm 8.9 WSW 13 23 1018.0 - 0.0 - - - - - - -
03/11:30am 7.9 WSW 12 18 1018.4 - 0.0 - - - - - - -
03/11:07am 7.8 SW 15 26 1018.1 - 0.0 - - - - - - -
03/11:00am 8.7 SW 15 25 1018.1 - 0.0 - - - - - - -
03/10:30am 7.5 SW 17 28 1017.5 - 0.0 - - - - - - -
03/10:23am 8.8 SW 16 27 1017.2 - 0.0 - - - - - - -
03/10:00am 8.5 WSW 13 19 1016.8 - 0.0 - - - - - - -
03/09:38am 8.1 SW 15 26 1016.5 - 0.0 - - - - - - -
03/09:30am 7.7 SW 14 22 1016.5 - 0.0 - - - - - - -
03/09:03am 7.5 WSW 15 27 1015.7 - 0.0 - - - - - - -
03/09:00am 7.4 WSW 15 23 1015.8 - 10.6 - - - - - - -
03/08:30am 5.8 W 11 17 1015.2 - 10.6 - - - - - - -
03/08:18am 5.6 WSW 17 33 1015.4 - 10.6 - - - - - - -
03/08:15am 5.6 WSW 15 33 1015.0 - 10.6 - - - - - - -
03/08:11am 6.3 WSW 10 32 1014.8 - 10.6 - - - - - - -
03/08:00am 6.3 W 8 12 1014.5 - 10.6 - - - - - - -
03/07:30am 6.5 WSW 13 25 1013.9 - 10.4 - - - - - - -
03/07:00am 6.7 W 11 20 1012.9 - 10.4 - - - - - - -
03/06:30am 6.7 W 10 15 1012.2 - 9.8 - - - - - - -
03/06:00am 6.5 WSW 13 20 1012.0 - 9.4 Rain - - - - - -
03/05:30am 6.7 WNW 12 17 1011.2 - 8.6 - - - - - - -
03/05:01am 6.9 WSW 16 27 1011.0 - 8.2 - - - - - - -
03/05:00am 7.0 WSW 15 25 1011.0 - 8.0 - - - - - - -
03/04:30am 7.1 W 13 20 1010.5 - 7.4 - - - - - - -
03/04:06am 7.8 W 13 32 1010.3 - 6.8 - - - - - - -
03/04:00am 8.0 WNW 13 20 1010.3 - 6.0 - - - - - - -
03/03:30am 8.0 WNW 11 18 1009.8 - 5.6 - - - - - - -
03/03:16am 7.9 WNW 15 27 1009.9 - 5.4 - - - - - - -
03/03:00am 8.4 W 12 19 1010.3 - 3.6 Rain - - - - - -
03/02:30am 8.8 WNW 16 27 1009.9 - 3.2 - - - - - - -
03/02:00am 9.2 WNW 16 29 1009.9 - 3.0 - - - - - - -
03/01:30am 9.5 WNW 16 28 1009.8 - 3.0 - - - - - - -
03/01:25am 9.7 WNW 16 27 1009.7 - 3.0 - - - - - - -
03/01:00am 9.7 WNW 16 25 1009.7 - 3.0 - - - - - - -
03/12:30am 9.7 WNW 18 30 1009.5 - 3.0 - - - - - - -
03/12:00am 9.4 WNW 16 30 1009.8 - 3.0 - - - - - - -
 
Date/Time
EST
Temp

°C
Wind Pressure Rain
since 9am
mm
Weather Cloud Vis
km
Sea
Height
m
Swell
Dir
 
Speed
knots
Gust
knots
hPa Trend Height
m
Period
s
Dir
02/11:46pm 9.4 WNW 15 28 1009.7 - 3.0 - - - - - - -
02/11:30pm 9.2 WNW 14 24 1009.8 - 3.0 - - - - - - -
02/11:04pm 9.2 NW 15 27 1009.8 - 3.0 - - - - - - -
02/11:00pm 9.1 NW 14 24 1009.9 - 3.0 - - - - - - -
02/10:30pm 9.1 NW 14 25 1010.1 - 3.0 - - - - - - -
02/10:17pm 9.1 NW 15 25 1010.0 - 3.0 - - - - - - -
02/10:00pm 9.3 NW 13 22 1010.4 - 3.0 - - - - - - -
02/09:30pm 9.4 NW 11 17 1010.4 - 3.0 - - - - - - -
02/09:00pm 9.5 WNW 12 18 1010.4 - 3.0 - - - - - - -
02/08:30pm 9.3 WNW 11 19 1010.3 - 3.0 - - - - - - -
02/08:00pm 9.2 WNW 12 18 1010.1 - 3.0 - - - - - - -
02/07:30pm 9.3 WNW 13 19 1010.1 - 3.0 - - - - - - -
02/07:00pm 9.2 WNW 11 17 1009.9 - 3.0 - - - - - - -
02/06:30pm 9.1 WNW 11 16 1009.8 - 3.0 - - - - - - -
02/06:00pm 9.4 WNW 13 22 1009.5 - 2.8 Rain - - - - - -
02/05:30pm 9.8 W 13 20 1008.9 - 2.2 - - - - - - -
02/05:00pm 9.4 W 12 23 1008.8 - 2.2 - - - - - - -
02/04:30pm 9.4 W 13 21 1009.1 - 1.6 - - - - - - -
02/04:10pm 9.9 WSW 15 29 1008.8 - 1.0 - - - - - - -
02/04:00pm 10.6 WSW 14 28 1008.7 - 0.2 - - - - - - -
02/03:50pm 10.9 W 17 28 1008.4 - 0.0 - - - - - - -
02/03:30pm 12.7 WNW 16 24 1007.9 - 0.0 - - - - - - -
02/03:00pm 12.6 WNW 17 28 1007.8 - 0.0 - - - - - - -
02/02:32pm 12.5 WNW 15 25 1007.8 - 0.0 - - - - - - -
02/02:30pm 12.6 WNW 16 25 1007.8 - 0.0 - - - - - - -
02/02:20pm 12.4 WNW 16 29 1007.7 - 0.0 - - - - - - -
02/02:00pm 12.3 WNW 18 27 1007.7 - 0.0 - - - - - - -
02/01:41pm 13.0 WNW 16 31 1007.8 - 0.0 - - - - - - -
02/01:30pm 12.5 WNW 15 24 1008.3 - 0.0 - - - - - - -
02/01:13pm 12.4 WNW 15 25 1008.4 - 0.0 - - - - - - -
02/01:00pm 12.9 WNW 13 21 1008.7 - 0.0 - - - - - - -
02/12:52pm 12.7 NW 15 25 1008.7 - 0.0 - - - - - - -
02/12:30pm 11.8 NW 11 18 1009.4 - 0.0 - - - - - - -
02/12:00pm 11.9 NW 13 20 1009.9 - 0.0 - - - - - - -
02/11:36am 11.1 NW 15 25 1010.5 - 0.0 - - - - - - -
02/11:30am 11.2 NW 13 22 1010.6 - 0.0 - - - - - - -
02/11:00am 10.7 NW 12 20 1011.4 - 0.0 - - - - - - -
02/10:30am 10.5 NW 12 19 1011.7 - 0.0 - - - - - - -
02/10:00am 10.1 NW 13 21 1011.7 - 0.0 - - - - - - -
02/09:30am 9.8 NW 12 18 1011.7 - 0.0 - - - - - - -
02/09:00am 9.4 NW 10 17 1011.7 - 0.0 - - - - - - -
02/08:30am 8.1 NW 7 12 1012.0 - 0.0 - - - - - - -
02/08:00am 7.7 NNW 6 11 1012.4 - 0.0 - - - - - - -
02/07:30am 7.8 NW 8 13 1012.3 - 0.0 - - - - - - -
02/07:00am 8.2 NW 9 15 1012.1 - 0.0 - - - - - - -
02/06:30am 8.0 NW 11 16 1012.3 - 0.0 - - - - - - -
02/06:00am 7.7 NW 7 13 1012.2 - 0.0 - - - - - - -
02/05:30am 7.1 NW 4 7 1012.4 - 0.0 - - - - - - -
02/05:00am 7.1 NW 4 7 1012.4 - 0.0 - - - - - - -
02/04:30am 7.0 NW 1 3 1012.4 - 0.0 - - - - - - -
02/04:00am 6.8 NW 3 4 1012.8 - 0.0 - - - - - - -
02/03:30am 7.2 NW 4 6 1013.3 - 0.0 - - - - - - -
02/03:00am 6.0 NW 3 6 1014.0 - 0.0 - - - - - - -
02/02:30am 5.8 NNW 2 2 1014.1 - 0.0 - - - - - - -
02/02:00am 6.3 NNW 3 3 1014.3 - 0.0 - - - - - - -
02/01:30am 6.6 NNW 3 3 1014.6 - 0.0 - - - - - - -
02/01:00am 6.5 NNW 2 4 1014.8 - 0.0 - - - - - - -
02/12:30am 6.7 NNW 2 3 1015.3 - 0.0 - - - - - - -
02/12:00am 6.7 NW 2 3 1015.6 - 0.0 - - - - - - -
 
Date/Time
EST
Temp

°C
Wind Pressure Rain
since 9am
mm
Weather Cloud Vis
km
Sea
Height
m
Swell
Dir
 
Speed
knots
Gust
knots
hPa Trend Height
m
Period
s
Dir
01/11:30pm 6.8 NW 3 5 1015.4 - 0.0 - - - - - - -
01/11:00pm 6.6 NW 3 5 1015.4 - 0.0 - - - - - - -
01/10:30pm 6.9 NW 2 4 1015.4 - 0.0 - - - - - - -
01/10:00pm 6.5 NW 3 4 1016.0 - 0.0 - - - - - - -
01/09:30pm 6.7 NNW 4 5 1015.8 - 0.0 - - - - - - -
01/09:00pm 6.9 NNW 3 4 1015.5 - 0.0 - - - - - - -
01/08:30pm 7.1 NNW 3 4 1015.7 - 0.0 - - - - - - -
01/08:00pm 7.7 N 3 4 1015.6 - 0.0 - - - - - - -
01/07:30pm 8.4 N 3 4 1015.6 - 0.0 - - - - - - -
01/07:00pm 8.6 N 3 5 1015.7 - 0.0 - - - - - - -
01/06:30pm 8.0 NW 2 3 1015.5 - 0.0 - - - - - - -
01/06:00pm 7.8 NW 2 3 1015.0 - 0.0 - - - - - - -
01/05:30pm 8.2 WNW 2 2 1014.9 - 0.0 - - - - - - -
01/05:00pm 9.2 WNW 2 3 1014.4 - 0.0 - - - - - - -
01/04:30pm 10.3 W 3 5 1014.2 - 0.0 - - - - - - -
01/04:00pm 10.6 WSW 6 9 1014.2 - 0.0 - - - - - - -
01/03:30pm 11.3 WSW 7 10 1014.2 - 0.0 - - - - - - -
01/03:00pm 11.0 WSW 8 12 1014.0 - 0.0 - - - - - - -
01/02:30pm 11.1 WSW 9 13 1013.8 - 0.0 - - - - - - -
01/02:00pm 11.2 WSW 7 11 1013.7 - 0.0 - - - - - - -
01/01:30pm 11.2 WSW 8 13 1013.8 - 0.0 - - - - - - -
01/01:00pm 11.1 WSW 9 13 1013.9 - 0.0 - - - - - - -
01/12:30pm 10.8 WSW 10 13 1013.9 - 0.0 - - - - - - -
01/12:00pm 11.1 WSW 8 15 1014.0 - 0.0 - - - - - - -
01/11:30am 11.0 WSW 9 15 1013.9 - 0.0 - - - - - - -
01/11:00am 10.3 WSW 8 13 1013.9 - 0.0 - - - - - - -
01/10:30am 10.2 W 8 12 1013.6 - 0.0 - - - - - - -
01/10:00am 9.8 WSW 5 8 1012.9 - 0.0 - - - - - - -
01/09:30am 9.2 WSW 8 13 1012.3 - 0.0 - - - - - - -
01/09:00am 8.8 WSW 11 17 1011.6 - 6.0 - - - - - - -
01/08:30am 9.1 WSW 9 13 1011.2 - 6.0 - - - - - - -
01/08:00am 8.9 WSW 10 15 1010.7 - 6.0 - - - - - - -
01/07:30am 9.6 NW 11 17 1009.4 - 4.2 - - - - - - -
01/07:00am 9.7 NNW 12 22 1008.2 - 3.0 - - - - - - -
01/06:30am 10.2 NNW 13 23 1007.4 - 0.8 - - - - - - -
01/06:00am 10.6 NNW 11 19 1007.0 - 0.2 Recent precip. - - - - - -
01/05:30am 11.2 NNW 16 28 1006.6 - 0.0 - - - - - - -
01/05:02am 12.6 NNW 15 28 1006.7 - 0.0 - - - - - - -
01/05:00am 12.5 NNW 14 28 1006.8 - 0.0 - - - - - - -
01/04:36am 12.8 NNW 15 34 1006.4 - 0.0 - - - - - - -
01/04:30am 12.3 NNW 12 22 1006.8 - 0.0 - - - - - - -
01/04:00am 12.4 NNW 13 24 1007.3 - 0.0 - - - - - - -
01/03:30am 12.3 NNW 16 29 1007.1 - 0.0 - - - - - - -
01/03:01am 12.1 NNW 15 30 1007.4 - 0.0 - - - - - - -
01/03:00am 11.9 NNW 14 30 1007.4 - 0.0 - - - - - - -
01/02:48am 11.9 NNW 15 28 1007.6 - 0.0 - - - - - - -
01/02:30am 11.5 NNW 14 28 1008.2 - 0.0 - - - - - - -
01/02:02am 11.5 NNW 15 26 1008.6 - 0.0 - - - - - - -
01/02:00am 11.5 NNW 14 26 1008.7 - 0.0 - - - - - - -
01/01:49am 11.5 NNW 15 31 1008.7 - 0.0 - - - - - - -
01/01:30am 11.3 NNW 14 24 1009.4 - 0.0 - - - - - - -
01/01:00am 11.2 N 12 24 1010.2 - 0.0 - - - - - - -
01/12:30am 11.0 N 13 29 1011.0 - 0.0 - - - - - - -
01/12:00am 10.6 N 9 18 1012.0 - 0.0 - - - - - - -
 
Date/Time
EST
Temp

°C
Wind Pressure Rain
since 9am
mm
Weather Cloud Vis
km
Sea
Height
m
Swell
Dir
 
Speed
knots
Gust
knots
hPa Trend Height
m
Period
s
Dir
31/11:30pm 10.4 N 11 18 1012.3 - 0.0 - - - - - - -
31/11:00pm 10.3 NNW 11 20 1013.1 - 0.0 - - - - - - -
31/10:30pm 10.0 N 8 19 1013.5 - 0.0 - - - - - - -
31/10:00pm 9.9 NNW 7 13 1014.1 - 0.0 - - - - - - -
31/09:30pm 9.8 NNW 8 14 1014.5 - 0.0 - - - - - - -
31/09:00pm 9.9 NNW 9 16 1015.0 - 0.0 - - - - - - -
31/08:30pm 10.1 NNW 8 16 1015.2 - 0.0 - - - - - - -
31/08:00pm 10.5 NNW 11 19 1014.6 - 0.0 - - - - - - -
31/07:30pm 10.4 N 10 19 1014.5 - 0.0 - - - - - - -
31/07:00pm 8.3 N 4 8 1015.2 - 0.0 - - - - - - -
31/06:30pm 5.7 NW 1 2 1015.5 - 0.0 - - - - - - -
31/06:00pm 6.6 CALM 0 0 1015.5 - 0.0 - - - - - - -
31/05:30pm 8.2 CALM 0 0 1015.4 - 0.0 - - - - - - -
31/05:00pm 10.3 CALM 0 0 1015.4 - 0.0 - - - - - - -
31/04:30pm 11.3 NW 3 4 1015.4 - 0.0 - - - - - - -
31/04:00pm 11.5 NW 4 6 1015.7 - 0.0 - - - - - - -
31/03:30pm 11.5 WNW 6 9 1016.4 - 0.0 - - - - - - -
31/03:00pm 11.7 WNW 6 11 1016.7 - 0.0 - - - - - - -

Other Formats:

Comma delimited format used in spreadsheet applications
http://www.bom.gov.au/fwo/IDV60701/IDV60701.94898.axf

JavaScript Object Notation format (JSON) in row-major order
http://www.bom.gov.au/fwo/IDV60701/IDV60701.94898.json